Time;durP1;ratioP1;P1;durP2;ratioP2;P2;SDS_P1;SDS_P2;PMS_P1;PMS_P2;Temp;Humidity;BMP_temperature;BMP_pressure;BME280_temperature;BME280_humidity;BME280_pressure;Samples;Min_cycle;Max_cycle;Signal;HPM_P1;HPM_P2
2024/01/12 00:00:28;;;;;;;51.73;25.93;;;;;;;;;;5030956;28;20088;-63
2024/01/12 00:02:54;;;;;;;50.07;24.63;;;;;;;;;;5030848;28;20080;-63
2024/01/12 00:05:20;;;;;;;60.07;27.13;;;;;;;;;;5030742;28;20285;-63
2024/01/12 00:07:46;;;;;;;57.80;25.80;;;;;;;;;;5030107;28;20304;-63
2024/01/12 00:10:13;;;;;;;57.83;24.93;;;;;;;;;;5030959;28;20424;-63
2024/01/12 00:12:39;;;;;;;55.30;24.43;;;;;;;;;;5030504;28;20338;-63
2024/01/12 00:15:05;;;;;;;61.13;26.00;;;;;;;;;;5030847;28;20057;-63
2024/01/12 00:17:32;;;;;;;53.87;25.27;;;;;;;;;;5030530;28;20760;-63
2024/01/12 00:19:58;;;;;;;69.40;28.37;;;;;;;;;;5030023;28;20056;-63
2024/01/12 00:22:24;;;;;;;74.47;29.43;;;;;;;;;;5030807;28;20033;-63
2024/01/12 00:24:50;;;;;;;56.47;25.53;;;;;;;;;;5030315;28;20037;-63
2024/01/12 00:27:16;;;;;;;56.93;26.07;;;;;;;;;;5030426;28;20096;-63
2024/01/12 00:29:42;;;;;;;66.37;28.70;;;;;;;;;;5029913;28;20069;-64
2024/01/12 00:32:08;;;;;;;62.30;26.37;;;;;;;;;;5030307;28;20049;-63
2024/01/12 00:34:34;;;;;;;57.27;26.43;;;;;;;;;;5030074;28;20058;-63
2024/01/12 00:37:00;;;;;;;52.30;24.63;;;;;;;;;;5030024;28;20053;-63
2024/01/12 00:39:26;;;;;;;57.20;25.73;;;;;;;;;;5028813;28;20046;-63
2024/01/12 00:41:52;;;;;;;52.27;23.77;;;;;;;;;;5030048;28;20077;-63
2024/01/12 00:44:18;;;;;;;52.20;24.33;;;;;;;;;;5029995;28;20125;-63
2024/01/12 00:46:45;;;;;;;56.33;26.03;;;;;;;;;;5029209;28;20391;-63
2024/01/12 00:49:11;;;;;;;64.80;24.13;;;;;;;;;;5029341;28;20311;-63
2024/01/12 00:51:37;;;;;;;57.97;26.70;;;;;;;;;;5029620;28;20099;-63
2024/01/12 00:54:04;;;;;;;63.73;25.57;;;;;;;;;;5029974;28;20447;-64
2024/01/12 00:56:30;;;;;;;51.93;24.20;;;;;;;;;;5029486;28;20520;-63
2024/01/12 00:58:56;;;;;;;52.40;23.77;;;;;;;;;;5029426;28;20281;-63
2024/01/12 01:01:22;;;;;;;53.93;22.97;;;;;;;;;;5029823;28;20048;-63
2024/01/12 01:03:48;;;;;;;57.70;24.13;;;;;;;;;;5028291;28;20060;-63
2024/01/12 01:06:15;;;;;;;47.27;22.37;;;;;;;;;;5027326;28;20516;-63
2024/01/12 01:08:41;;;;;;;61.80;24.30;;;;;;;;;;5029477;28;20041;-63
2024/01/12 01:11:07;;;;;;;44.90;22.70;;;;;;;;;;5029790;28;20045;-63
2024/01/12 01:13:36;;;;;;;45.20;23.10;;;;;;;;;;5029085;28;20052;-63
2024/01/12 01:16:02;;;;;;;53.17;23.70;;;;;;;;;;5029493;28;20049;-63
2024/01/12 01:18:30;;;;;;;43.13;22.37;;;;;;;;;;5029431;28;20121;-63
2024/01/12 01:20:57;;;;;;;49.20;22.20;;;;;;;;;;5027564;28;20049;-63
2024/01/12 01:23:23;;;;;;;57.33;24.97;;;;;;;;;;5029280;28;20099;-63
2024/01/12 01:25:49;;;;;;;53.03;22.73;;;;;;;;;;5029278;28;20053;-63
2024/01/12 01:28:15;;;;;;;53.50;24.10;;;;;;;;;;5028749;28;20172;-63
2024/01/12 01:30:41;;;;;;;47.10;21.43;;;;;;;;;;5028964;28;20538;-63
2024/01/12 01:33:08;;;;;;;49.67;21.10;;;;;;;;;;5029312;28;20060;-63
2024/01/12 01:35:34;;;;;;;46.67;21.37;;;;;;;;;;5027388;28;20107;-63
2024/01/12 01:38:00;;;;;;;46.83;21.63;;;;;;;;;;5025205;28;20365;-63
2024/01/12 01:40:26;;;;;;;45.53;18.80;;;;;;;;;;5027023;28;20050;-63
2024/01/12 01:42:52;;;;;;;46.50;19.57;;;;;;;;;;5026047;28;20049;-63
2024/01/12 01:45:18;;;;;;;39.70;19.37;;;;;;;;;;5024196;28;20057;-63
2024/01/12 01:47:45;;;;;;;47.87;20.03;;;;;;;;;;5026342;28;20060;-63
2024/01/12 01:50:13;;;;;;;39.73;19.53;;;;;;;;;;5027994;28;20103;-63
2024/01/12 01:52:39;;;;;;;41.10;17.27;;;;;;;;;;5025805;28;20056;-63
2024/01/12 01:55:05;;;;;;;38.00;14.77;;;;;;;;;;5026911;28;20092;-63
2024/01/12 01:57:32;;;;;;;30.70;14.50;;;;;;;;;;5026585;28;20056;-63
2024/01/12 01:59:58;;;;;;;40.57;18.73;;;;;;;;;;5027795;28;20052;-63
2024/01/12 02:02:24;;;;;;;32.23;12.63;;;;;;;;;;5028158;28;20091;-63
2024/01/12 02:04:54;;;;;;;33.57;13.83;;;;;;;;;;5028076;28;20492;-63
2024/01/12 02:07:20;;;;;;;34.80;14.33;;;;;;;;;;5027216;28;20052;-63
2024/01/12 02:09:46;;;;;;;35.63;14.27;;;;;;;;;;5030006;28;20048;-63
2024/01/12 02:12:12;;;;;;;28.77;13.77;;;;;;;;;;5027645;28;20049;-63
2024/01/12 02:14:38;;;;;;;34.27;14.03;;;;;;;;;;5028327;28;20076;-63
2024/01/12 02:17:04;;;;;;;40.97;15.70;;;;;;;;;;5027588;28;20421;-63
2024/01/12 02:19:30;;;;;;;31.67;13.60;;;;;;;;;;5027984;28;20045;-64
2024/01/12 02:21:56;;;;;;;39.20;15.20;;;;;;;;;;5027592;28;20092;-63
2024/01/12 02:24:22;;;;;;;33.33;14.07;;;;;;;;;;5028388;28;20049;-63
2024/01/12 02:26:48;;;;;;;31.03;14.10;;;;;;;;;;5027901;28;20072;-63
2024/01/12 02:29:14;;;;;;;32.67;12.67;;;;;;;;;;5028688;28;20392;-63
2024/01/12 02:31:40;;;;;;;27.97;12.47;;;;;;;;;;5028210;28;20045;-63
2024/01/12 02:34:07;;;;;;;27.77;10.40;;;;;;;;;;5028779;28;20048;-64
2024/01/12 02:36:33;;;;;;;25.93;10.57;;;;;;;;;;5028048;28;20412;-63
2024/01/12 02:38:59;;;;;;;29.13;10.07;;;;;;;;;;5027602;28;20037;-63
2024/01/12 02:41:25;;;;;;;27.57;10.63;;;;;;;;;;5034320;28;20099;-63
2024/01/12 02:43:52;;;;;;;25.27;10.13;;;;;;;;;;5027328;28;20091;-63
2024/01/12 02:46:18;;;;;;;29.60;9.57;;;;;;;;;;5028286;28;20516;-64
2024/01/12 02:48:44;;;;;;;22.70;8.53;;;;;;;;;;5028252;28;20045;-63
2024/01/12 02:51:10;;;;;;;23.17;9.13;;;;;;;;;;5028318;28;20049;-63
2024/01/12 02:53:36;;;;;;;22.60;8.83;;;;;;;;;;5043745;28;20126;-63
2024/01/12 02:56:03;;;;;;;22.47;7.60;;;;;;;;;;5028031;28;20096;-63
2024/01/12 02:58:29;;;;;;;24.73;7.80;;;;;;;;;;5029077;28;20060;-63
2024/01/12 03:00:55;;;;;;;17.83;6.80;;;;;;;;;;5027932;28;20049;-63
2024/01/12 03:03:20;;;;;;;19.43;7.90;;;;;;;;;;5028150;28;20404;-63
2024/01/12 03:05:48;;;;;;;29.03;8.37;;;;;;;;;;5029324;28;20245;-63
2024/01/12 03:08:14;;;;;;;20.40;7.60;;;;;;;;;;5032255;28;20095;-63
2024/01/12 03:10:40;;;;;;;22.23;8.60;;;;;;;;;;5031959;28;20053;-63
2024/01/12 03:13:06;;;;;;;21.03;7.97;;;;;;;;;;5032170;28;20426;-63
2024/01/12 03:15:32;;;;;;;22.83;7.60;;;;;;;;;;5046418;28;20048;-63
2024/01/12 03:17:59;;;;;;;26.13;7.67;;;;;;;;;;5051818;28;20060;-63
2024/01/12 03:20:25;;;;;;;21.03;7.30;;;;;;;;;;5051528;28;20053;-64
2024/01/12 03:22:51;;;;;;;27.43;8.10;;;;;;;;;;5051849;28;20071;-63
2024/01/12 03:25:17;;;;;;;23.90;7.37;;;;;;;;;;5051567;28;20136;-63
2024/01/12 03:27:43;;;;;;;19.83;7.57;;;;;;;;;;5051689;28;20166;-63
2024/01/12 03:30:09;;;;;;;23.20;7.27;;;;;;;;;;5051908;28;20053;-63
2024/01/12 03:32:35;;;;;;;22.00;7.30;;;;;;;;;;5050531;28;20045;-63
2024/01/12 03:35:03;;;;;;;29.77;10.23;;;;;;;;;;5051647;28;20088;-63
2024/01/12 03:37:29;;;;;;;19.40;7.43;;;;;;;;;;5049917;28;20540;-63
2024/01/12 03:39:55;;;;;;;28.00;10.13;;;;;;;;;;5030823;28;20419;-63
2024/01/12 03:42:21;;;;;;;21.03;7.23;;;;;;;;;;5031674;28;20045;-63
2024/01/12 03:44:47;;;;;;;22.50;7.30;;;;;;;;;;5031206;28;20045;-63
2024/01/12 03:47:13;;;;;;;23.40;7.70;;;;;;;;;;5031165;28;20080;-63
2024/01/12 03:49:39;;;;;;;21.20;7.23;;;;;;;;;;5032012;28;20077;-63
2024/01/12 03:52:06;;;;;;;19.80;7.83;;;;;;;;;;5031063;28;20064;-63
2024/01/12 03:54:32;;;;;;;15.27;6.57;;;;;;;;;;5031323;28;20550;-63
2024/01/12 03:56:58;;;;;;;27.30;6.47;;;;;;;;;;5031219;28;20056;-63
2024/01/12 03:59:24;;;;;;;23.00;7.97;;;;;;;;;;5031078;28;20042;-63
2024/01/12 04:01:50;;;;;;;23.67;6.33;;;;;;;;;;5043539;28;20045;-63
2024/01/12 04:04:16;;;;;;;25.10;9.37;;;;;;;;;;5050715;28;20048;-63
2024/01/12 04:06:42;;;;;;;16.17;6.70;;;;;;;;;;5034774;28;20064;-63
2024/01/12 04:09:15;;;;;;;19.00;6.70;;;;;;;;;;5031232;28;20535;-63
2024/01/12 04:11:41;;;;;;;20.57;6.40;;;;;;;;;;5031050;28;20041;-63
2024/01/12 04:14:07;;;;;;;19.70;6.20;;;;;;;;;;5030754;28;20056;-63
2024/01/12 04:16:33;;;;;;;22.10;7.53;;;;;;;;;;5030355;28;20403;-63
2024/01/12 04:18:59;;;;;;;18.10;6.80;;;;;;;;;;5030803;28;20092;-63
2024/01/12 04:21:25;;;;;;;20.70;7.60;;;;;;;;;;5031025;28;20085;-63
2024/01/12 04:23:51;;;;;;;22.43;7.47;;;;;;;;;;5031008;28;20049;-63
2024/01/12 04:26:18;;;;;;;23.83;7.07;;;;;;;;;;5030828;28;20175;-63
2024/01/12 04:28:44;;;;;;;18.33;6.53;;;;;;;;;;5030847;28;20060;-63
2024/01/12 04:31:10;;;;;;;22.23;7.63;;;;;;;;;;5030906;28;20054;-63
2024/01/12 04:33:36;;;;;;;18.10;6.77;;;;;;;;;;5030517;28;20057;-64
2024/01/12 04:36:02;;;;;;;22.83;7.80;;;;;;;;;;5030004;28;20048;-63
2024/01/12 04:38:28;;;;;;;21.63;6.77;;;;;;;;;;5031014;28;20095;-64
2024/01/12 04:40:54;;;;;;;15.83;6.83;;;;;;;;;;5030961;28;20431;-64
2024/01/12 04:43:20;;;;;;;31.43;8.47;;;;;;;;;;5030446;28;20143;-63
2024/01/12 04:45:46;;;;;;;17.47;6.97;;;;;;;;;;5029884;28;20053;-63
2024/01/12 04:48:12;;;;;;;24.43;6.60;;;;;;;;;;5030210;28;20056;-63
2024/01/12 04:50:38;;;;;;;20.47;6.73;;;;;;;;;;5030217;28;20570;-63
2024/01/12 04:53:04;;;;;;;17.63;7.50;;;;;;;;;;5030535;28;20331;-63
2024/01/12 04:55:30;;;;;;;18.73;6.53;;;;;;;;;;5030256;28;20068;-63
2024/01/12 04:57:57;;;;;;;19.10;6.93;;;;;;;;;;5030770;28;20099;-63
2024/01/12 05:00:23;;;;;;;20.20;6.73;;;;;;;;;;5029737;28;20053;-63
2024/01/12 05:02:49;;;;;;;18.07;6.70;;;;;;;;;;5030120;28;20147;-63
2024/01/12 05:05:15;;;;;;;21.80;7.33;;;;;;;;;;5030124;28;20505;-63
2024/01/12 05:07:41;;;;;;;14.47;5.93;;;;;;;;;;5030102;28;20408;-63
2024/01/12 05:10:07;;;;;;;18.77;6.00;;;;;;;;;;5029707;28;20107;-63
2024/01/12 05:12:34;;;;;;;18.87;6.03;;;;;;;;;;5029801;28;20057;-63
2024/01/12 05:15:01;;;;;;;19.70;6.93;;;;;;;;;;5030457;28;20057;-63
2024/01/12 05:17:28;;;;;;;19.73;7.20;;;;;;;;;;5028100;28;20049;-63
2024/01/12 05:19:54;;;;;;;20.00;6.83;;;;;;;;;;5028916;28;20467;-63
2024/01/12 05:22:21;;;;;;;24.40;8.87;;;;;;;;;;5029030;28;20045;-63
2024/01/12 05:24:47;;;;;;;22.50;7.60;;;;;;;;;;5029542;28;20052;-63
2024/01/12 05:27:12;;;;;;;17.40;6.47;;;;;;;;;;5027198;28;20041;-64
2024/01/12 05:29:39;;;;;;;25.53;7.53;;;;;;;;;;5028933;28;20081;-63
2024/01/12 05:32:05;;;;;;;27.60;9.40;;;;;;;;;;5029520;28;20057;-63
2024/01/12 05:34:31;;;;;;;15.70;6.20;;;;;;;;;;5029541;28;20414;-63
2024/01/12 05:36:57;;;;;;;16.53;5.80;;;;;;;;;;5029323;28;20146;-63
2024/01/12 05:39:23;;;;;;;26.03;6.93;;;;;;;;;;5029132;28;20053;-63
2024/01/12 05:41:49;;;;;;;16.23;6.63;;;;;;;;;;5029375;28;20068;-63
2024/01/12 05:44:15;;;;;;;16.47;7.03;;;;;;;;;;5029118;28;20062;-63
2024/01/12 05:46:41;;;;;;;13.40;6.20;;;;;;;;;;5028726;28;20051;-64
2024/01/12 05:49:07;;;;;;;14.67;6.83;;;;;;;;;;5030669;28;20049;-63
2024/01/12 05:51:33;;;;;;;27.53;7.00;;;;;;;;;;5029376;28;20049;-63
2024/01/12 05:53:59;;;;;;;19.97;6.53;;;;;;;;;;5028825;28;20081;-63
2024/01/12 05:56:25;;;;;;;15.23;6.67;;;;;;;;;;5028993;28;20526;-63
2024/01/12 05:58:51;;;;;;;22.63;7.07;;;;;;;;;;5028733;28;20089;-63
2024/01/12 06:01:18;;;;;;;18.63;6.73;;;;;;;;;;5028745;28;20068;-63
2024/01/12 06:03:47;;;;;;;18.53;6.93;;;;;;;;;;5029123;28;20049;-63
2024/01/12 06:06:13;;;;;;;17.83;7.40;;;;;;;;;;5009466;28;20042;-63
2024/01/12 06:08:39;;;;;;;18.73;6.70;;;;;;;;;;5009030;28;20061;-64
2024/01/12 06:11:05;;;;;;;21.23;7.00;;;;;;;;;;5009329;28;20057;-63
2024/01/12 06:13:31;;;;;;;22.70;7.70;;;;;;;;;;5024598;28;20045;-64
2024/01/12 06:15:57;;;;;;;22.67;7.73;;;;;;;;;;5009177;28;20164;-64
2024/01/12 06:18:24;;;;;;;25.33;7.33;;;;;;;;;;5008938;28;20136;-63
2024/01/12 06:20:50;;;;;;;22.57;8.37;;;;;;;;;;5010547;28;20061;-63
2024/01/12 06:23:16;;;;;;;24.83;8.53;;;;;;;;;;5028870;28;20454;-63
2024/01/12 06:25:42;;;;;;;18.50;8.20;;;;;;;;;;5028305;28;20095;-63
2024/01/12 06:28:08;;;;;;;21.67;8.23;;;;;;;;;;5028700;28;20060;-64
2024/01/12 06:30:34;;;;;;;19.57;8.00;;;;;;;;;;5032211;28;20045;-63
2024/01/12 06:33:00;;;;;;;37.87;9.60;;;;;;;;;;5028321;28;20049;-63
2024/01/12 06:35:26;;;;;;;23.07;8.00;;;;;;;;;;5028353;28;20566;-63
2024/01/12 06:37:52;;;;;;;28.97;9.20;;;;;;;;;;5028781;28;20145;-63
2024/01/12 06:40:18;;;;;;;23.57;9.27;;;;;;;;;;5028204;28;20048;-63
2024/01/12 06:42:44;;;;;;;21.47;9.00;;;;;;;;;;5028644;28;20052;-63
2024/01/12 06:45:13;;;;;;;22.97;8.40;;;;;;;;;;5028454;28;20427;-64
2024/01/12 06:47:40;;;;;;;20.23;9.00;;;;;;;;;;5027652;28;20176;-64
2024/01/12 06:50:06;;;;;;;26.33;10.43;;;;;;;;;;5028747;28;20124;-63
2024/01/12 06:52:32;;;;;;;20.47;8.37;;;;;;;;;;5028585;28;20064;-63
2024/01/12 06:54:58;;;;;;;24.47;8.73;;;;;;;;;;5030033;28;20763;-63
2024/01/12 06:57:24;;;;;;;20.83;9.27;;;;;;;;;;5047926;28;20052;-64
2024/01/12 06:59:51;;;;;;;21.87;9.03;;;;;;;;;;5048318;28;20045;-63
2024/01/12 07:02:18;;;;;;;31.73;10.47;;;;;;;;;;5047625;28;20056;-63
2024/01/12 07:04:45;;;;;;;23.17;9.07;;;;;;;;;;5046568;28;20049;-63
2024/01/12 07:07:11;;;;;;;22.87;9.13;;;;;;;;;;5048601;28;20052;-63
2024/01/12 07:09:37;;;;;;;21.10;7.93;;;;;;;;;;5048174;28;20048;-64
2024/01/12 07:12:03;;;;;;;16.97;8.97;;;;;;;;;;5045329;28;20049;-63
2024/01/12 07:14:29;;;;;;;30.30;8.90;;;;;;;;;;5028455;28;20199;-63
2024/01/12 07:16:56;;;;;;;21.40;8.70;;;;;;;;;;5027994;28;20503;-64
2024/01/12 07:19:22;;;;;;;26.53;9.40;;;;;;;;;;5028208;28;20046;-63
2024/01/12 07:21:48;;;;;;;22.43;8.30;;;;;;;;;;5027012;28;20045;-63
2024/01/12 07:24:14;;;;;;;23.53;8.30;;;;;;;;;;5028154;28;20492;-63
2024/01/12 07:26:40;;;;;;;18.70;8.47;;;;;;;;;;5027196;28;20057;-63
2024/01/12 07:29:06;;;;;;;24.13;8.80;;;;;;;;;;5033255;28;20029;-63
2024/01/12 07:31:35;;;;;;;26.63;8.77;;;;;;;;;;5028176;28;20483;-63
2024/01/12 07:34:02;;;;;;;29.90;8.83;;;;;;;;;;5027812;28;20100;-63
2024/01/12 07:36:28;;;;;;;21.60;9.63;;;;;;;;;;5027786;28;20060;-63
2024/01/12 07:38:55;;;;;;;25.57;10.23;;;;;;;;;;5027526;28;20053;-63
2024/01/12 07:41:21;;;;;;;24.73;9.47;;;;;;;;;;5027729;28;20555;-63
2024/01/12 07:43:47;;;;;;;21.23;9.10;;;;;;;;;;5027282;28;20132;-63
2024/01/12 07:46:17;;;;;;;23.30;9.70;;;;;;;;;;5027175;28;20076;-63
2024/01/12 07:48:44;;;;;;;23.13;8.93;;;;;;;;;;5027504;28;20057;-63
2024/01/12 07:51:10;;;;;;;17.47;9.10;;;;;;;;;;5028066;28;20042;-63
2024/01/12 07:53:36;;;;;;;21.97;9.67;;;;;;;;;;5031133;28;20051;-63
2024/01/12 07:56:02;;;;;;;25.33;9.73;;;;;;;;;;5030732;28;20045;-63
2024/01/12 07:58:28;;;;;;;28.93;11.00;;;;;;;;;;5031006;28;20045;-63
2024/01/12 08:00:54;;;;;;;25.67;9.00;;;;;;;;;;5030352;28;20414;-63
2024/01/12 08:03:20;;;;;;;22.17;9.17;;;;;;;;;;5029625;28;20048;-63
2024/01/12 08:05:46;;;;;;;26.30;9.47;;;;;;;;;;5028342;28;20060;-63
2024/01/12 08:08:12;;;;;;;34.13;9.93;;;;;;;;;;5030943;28;20495;-63
2024/01/12 08:10:38;;;;;;;24.33;9.30;;;;;;;;;;5030966;28;20423;-63
2024/01/12 08:13:04;;;;;;;21.17;9.00;;;;;;;;;;5011292;28;20041;-63
2024/01/12 08:15:30;;;;;;;29.90;10.00;;;;;;;;;;5011172;28;20084;-63
2024/01/12 08:17:56;;;;;;;22.97;9.53;;;;;;;;;;5010747;28;20085;-63
2024/01/12 08:20:22;;;;;;;20.67;9.87;;;;;;;;;;5031653;28;20076;-62
2024/01/12 08:22:48;;;;;;;27.00;9.77;;;;;;;;;;5030932;28;20075;-63
2024/01/12 08:25:14;;;;;;;20.97;8.90;;;;;;;;;;5029757;28;20551;-63
2024/01/12 08:27:40;;;;;;;18.33;9.87;;;;;;;;;;5030504;28;20416;-63
2024/01/12 08:30:07;;;;;;;22.53;9.53;;;;;;;;;;5029348;28;20042;-63
2024/01/12 08:32:33;;;;;;;23.67;8.80;;;;;;;;;;5030079;28;20042;-63
2024/01/12 08:34:59;;;;;;;21.40;8.63;;;;;;;;;;5030046;28;20053;-63
2024/01/12 08:37:25;;;;;;;25.50;9.10;;;;;;;;;;5029755;28;20187;-63
2024/01/12 08:39:51;;;;;;;30.70;9.10;;;;;;;;;;5028748;28;20223;-63
2024/01/12 08:42:17;;;;;;;23.07;8.40;;;;;;;;;;5030288;28;20045;-63
2024/01/12 08:44:43;;;;;;;16.43;8.93;;;;;;;;;;5029603;28;20053;-63
2024/01/12 08:47:09;;;;;;;16.97;8.27;;;;;;;;;;5029659;28;20423;-63
2024/01/12 08:49:35;;;;;;;21.73;8.83;;;;;;;;;;5029800;28;20041;-62
2024/01/12 08:52:01;;;;;;;31.70;9.23;;;;;;;;;;5029968;28;20076;-63
2024/01/12 08:54:27;;;;;;;25.83;9.10;;;;;;;;;;5029813;28;20491;-63
2024/01/12 08:56:53;;;;;;;20.03;9.40;;;;;;;;;;5029104;28;20153;-63
2024/01/12 08:59:20;;;;;;;21.70;8.13;;;;;;;;;;5029855;28;20100;-63
2024/01/12 09:01:46;;;;;;;26.40;10.07;;;;;;;;;;5029278;28;20104;-63
2024/01/12 09:04:12;;;;;;;17.20;8.07;;;;;;;;;;5028187;28;20042;-63
2024/01/12 09:06:38;;;;;;;25.97;10.50;;;;;;;;;;5028634;28;20187;-63
2024/01/12 09:09:04;;;;;;;18.37;8.33;;;;;;;;;;5025467;28;20045;-63
2024/01/12 09:11:30;;;;;;;16.80;8.03;;;;;;;;;;5027646;28;20109;-63
2024/01/12 09:13:56;;;;;;;18.53;8.03;;;;;;;;;;5029012;28;20085;-63
2024/01/12 09:16:22;;;;;;;24.77;8.20;;;;;;;;;;5029254;28;20108;-63
2024/01/12 09:18:48;;;;;;;26.27;8.27;;;;;;;;;;5028961;28;20134;-62
2024/01/12 09:21:15;;;;;;;21.47;7.63;;;;;;;;;;5029521;28;20081;-62
2024/01/12 09:23:45;;;;;;;20.57;8.13;;;;;;;;;;5028358;28;20045;-63
2024/01/12 09:26:11;;;;;;;22.50;9.37;;;;;;;;;;5028954;28;20462;-63
2024/01/12 09:28:38;;;;;;;20.57;8.77;;;;;;;;;;5027677;28;20136;-63
2024/01/12 09:31:04;;;;;;;24.17;8.23;;;;;;;;;;5029067;28;20133;-63
2024/01/12 09:33:30;;;;;;;19.60;7.77;;;;;;;;;;5028140;28;20385;-63
2024/01/12 09:35:56;;;;;;;27.30;8.80;;;;;;;;;;5028350;28;20045;-63
2024/01/12 09:38:22;;;;;;;22.07;8.30;;;;;;;;;;5029030;28;20084;-63
2024/01/12 09:40:48;;;;;;;15.70;7.63;;;;;;;;;;5028631;28;20515;-63
2024/01/12 09:43:15;;;;;;;21.53;8.83;;;;;;;;;;5025642;28;20050;-62
2024/01/12 09:45:44;;;;;;;22.53;8.40;;;;;;;;;;5026693;28;20053;-63
2024/01/12 09:48:11;;;;;;;20.70;7.23;;;;;;;;;;5028416;28;20523;-63
2024/01/12 09:50:38;;;;;;;19.33;7.03;;;;;;;;;;5027546;28;20122;-63
2024/01/12 09:53:04;;;;;;;25.30;8.30;;;;;;;;;;5028691;28;20415;-63
2024/01/12 09:55:30;;;;;;;21.63;7.63;;;;;;;;;;5028138;28;20511;-63
2024/01/12 09:57:56;;;;;;;17.20;7.90;;;;;;;;;;5027549;28;20049;-62
2024/01/12 10:00:25;;;;;;;24.70;7.67;;;;;;;;;;5026124;28;20399;-62
2024/01/12 10:02:51;;;;;;;18.07;7.17;;;;;;;;;;5026134;28;20038;-63
2024/01/12 10:05:17;;;;;;;18.27;7.03;;;;;;;;;;5028208;28;20538;-63
2024/01/12 10:07:43;;;;;;;18.33;6.83;;;;;;;;;;5028636;28;20049;-62
2024/01/12 10:10:10;;;;;;;18.50;6.60;;;;;;;;;;5026289;28;20081;-63
2024/01/12 10:12:36;;;;;;;16.73;6.50;;;;;;;;;;5027622;28;20403;-62
2024/01/12 10:15:09;;;;;;;12.67;6.50;;;;;;;;;;5026236;28;20051;-63
2024/01/12 10:17:35;;;;;;;;;;;;;;;;;;5015684;28;20127;-63
2024/01/12 10:20:01;;;;;;;20.83;6.47;;;;;;;;;;5027719;28;19929;-63
2024/01/12 10:22:28;;;;;;;13.43;4.93;;;;;;;;;;5022877;28;20041;-63
2024/01/12 10:25:01;;;;;;;19.67;5.17;;;;;;;;;;5027347;28;20087;-63
2024/01/12 10:27:27;;;;;;;18.25;4.88;;;;;;;;;;5027908;28;20455;-63
2024/01/12 10:29:54;;;;;;;13.47;4.33;;;;;;;;;;5028249;28;20437;-63
2024/01/12 10:32:20;;;;;;;16.17;4.57;;;;;;;;;;5027579;28;20042;-63
2024/01/12 10:34:47;;;;;;;16.20;4.70;;;;;;;;;;5025777;28;20081;-62
2024/01/12 10:37:15;;;;;;;14.73;4.97;;;;;;;;;;5023578;28;20049;-63
2024/01/12 10:39:44;;;;;;;22.13;4.97;;;;;;;;;;5026205;28;20060;-63
2024/01/12 10:42:11;;;;;;;17.43;4.53;;;;;;;;;;5027014;28;20056;-63
2024/01/12 10:44:39;;;;;;;16.77;5.27;;;;;;;;;;5028789;28;20065;-63
2024/01/12 10:47:06;;;;;;;15.43;5.10;;;;;;;;;;5027320;28;20443;-63
2024/01/12 10:49:38;;;;;;;20.83;4.30;;;;;;;;;;5027163;28;20088;-63
2024/01/12 10:52:15;;;;;;;21.27;4.57;;;;;;;;;;5028301;28;20071;-63
2024/01/12 10:54:49;;;;;;;17.53;3.90;;;;;;;;;;5026668;28;20058;-63
2024/01/12 10:57:16;;;;;;;27.43;4.60;;;;;;;;;;5027379;28;20171;-63
2024/01/12 10:59:43;;;;;;;13.87;4.43;;;;;;;;;;5027230;28;20037;-63
2024/01/12 11:02:10;;;;;;;15.00;3.80;;;;;;;;;;5027279;28;20046;-63
2024/01/12 11:04:37;;;;;;;15.77;4.00;;;;;;;;;;5028010;28;20467;-63
2024/01/12 11:07:04;;;;;;;18.07;3.97;;;;;;;;;;5027945;28;20037;-63
2024/01/12 11:09:29;;;;;;;29.73;6.73;;;;;;;;;;5027338;28;20054;-63
2024/01/12 11:12:08;;;;;;;12.93;3.47;;;;;;;;;;5028119;28;20091;-63
2024/01/12 11:14:34;;;;;;;21.30;4.10;;;;;;;;;;5028087;28;20049;-63
2024/01/12 11:17:01;;;;;;;14.33;3.23;;;;;;;;;;5026973;28;20044;-63
2024/01/12 11:19:29;;;;;;;13.57;3.73;;;;;;;;;;5026963;28;20148;-63
2024/01/12 11:22:07;;;;;;;23.10;4.23;;;;;;;;;;5027170;28;20042;-63
2024/01/12 11:24:34;;;;;;;17.40;3.10;;;;;;;;;;5026956;28;20054;-63
2024/01/12 11:27:01;;;;;;;16.23;3.23;;;;;;;;;;5029090;28;20053;-63
2024/01/12 11:29:30;;;;;;;18.03;4.20;;;;;;;;;;5030219;28;20550;-63
2024/01/12 11:32:00;;;;;;;21.50;4.70;;;;;;;;;;5030490;28;20038;-63
2024/01/12 11:34:29;;;;;;;12.23;2.90;;;;;;;;;;5030988;28;20103;-63
2024/01/12 11:36:58;;;;;;;15.60;3.23;;;;;;;;;;5029412;28;20064;-63
2024/01/12 11:39:24;;;;;;;21.90;4.27;;;;;;;;;;5030339;28;20092;-63
2024/01/12 11:41:52;;;;;;;17.63;3.63;;;;;;;;;;5030704;28;20164;-63
2024/01/12 11:44:18;;;;;;;26.43;3.53;;;;;;;;;;5027492;28;20103;-62
2024/01/12 11:46:44;;;;;;;13.43;2.97;;;;;;;;;;5030485;28;20498;-63
2024/01/12 11:49:10;;;;;;;20.67;3.60;;;;;;;;;;5028630;28;20057;-62
2024/01/12 11:51:36;;;;;;;16.60;3.07;;;;;;;;;;5030178;28;20033;-63
2024/01/12 11:54:03;;;;;;;16.43;3.30;;;;;;;;;;5031210;28;20112;-63
2024/01/12 11:56:29;;;;;;;20.20;3.17;;;;;;;;;;5030041;28;20053;-62
2024/01/12 11:58:55;;;;;;;17.97;3.17;;;;;;;;;;5030247;28;20054;-63
2024/01/12 12:01:24;;;;;;;20.80;3.63;;;;;;;;;;5031019;28;20494;-63
2024/01/12 12:03:50;;;;;;;25.67;3.73;;;;;;;;;;5030377;28;20053;-63
2024/01/12 12:06:17;;;;;;;20.57;3.20;;;;;;;;;;5030666;28;20045;-63
2024/01/12 12:08:43;;;;;;;20.43;3.57;;;;;;;;;;5030400;28;20091;-63
2024/01/12 12:11:09;;;;;;;14.90;3.23;;;;;;;;;;5029255;28;20475;-63
2024/01/12 12:13:37;;;;;;;22.33;3.60;;;;;;;;;;5026034;28;20053;-62
2024/01/12 12:16:03;;;;;;;20.83;3.33;;;;;;;;;;5029755;28;20037;-63
2024/01/12 12:18:32;;;;;;;18.40;3.00;;;;;;;;;;5029411;28;20715;-63
2024/01/12 12:21:00;;;;;;;14.87;3.40;;;;;;;;;;5029987;28;20045;-63
2024/01/12 12:23:27;;;;;;;24.30;4.43;;;;;;;;;;5030247;28;20053;-63
2024/01/12 12:25:54;;;;;;;26.83;3.60;;;;;;;;;;5029936;28;20118;-63
2024/01/12 12:28:20;;;;;;;14.27;3.03;;;;;;;;;;5029458;28;20045;-63
2024/01/12 12:30:46;;;;;;;12.43;3.07;;;;;;;;;;5029499;28;20044;-63
2024/01/12 12:33:12;;;;;;;16.23;4.10;;;;;;;;;;5029476;28;20041;-63
2024/01/12 12:35:38;;;;;;;23.93;3.27;;;;;;;;;;5028743;28;20049;-63
2024/01/12 12:38:04;;;;;;;13.83;3.50;;;;;;;;;;5028915;28;20041;-63
2024/01/12 12:40:31;;;;;;;12.80;2.90;;;;;;;;;;5028129;28;20503;-63
2024/01/12 12:42:58;;;;;;;21.30;4.00;;;;;;;;;;5028953;28;20443;-63
2024/01/12 12:45:24;;;;;;;18.27;3.47;;;;;;;;;;5028294;28;20414;-63
2024/01/12 12:47:50;;;;;;;19.27;4.83;;;;;;;;;;5016233;28;20054;-63
2024/01/12 12:50:17;;;;;;;16.93;3.50;;;;;;;;;;5023888;28;20045;-63
2024/01/12 12:52:47;;;;;;;22.37;5.20;;;;;;;;;;5029539;28;20163;-63
2024/01/12 12:55:13;;;;;;;16.60;3.10;;;;;;;;;;5022569;28;20089;-63
2024/01/12 12:57:40;;;;;;;22.37;3.83;;;;;;;;;;5025132;28;20053;-63
2024/01/12 13:00:09;;;;;;;23.93;3.63;;;;;;;;;;5010416;28;20041;-63
2024/01/12 13:02:35;;;;;;;12.47;3.20;;;;;;;;;;5009315;28;20085;-63
2024/01/12 13:05:03;;;;;;;20.57;4.30;;;;;;;;;;5010310;28;21092;-62
2024/01/12 13:07:29;;;;;;;15.13;3.23;;;;;;;;;;5010418;28;20060;-63
2024/01/12 13:09:55;;;;;;;24.17;3.50;;;;;;;;;;5021562;28;20065;-63
2024/01/12 13:12:21;;;;;;;22.47;3.53;;;;;;;;;;5029390;28;20048;-63
2024/01/12 13:14:48;;;;;;;26.13;5.37;;;;;;;;;;5029599;28;20080;-63
2024/01/12 13:17:14;;;;;;;26.47;3.80;;;;;;;;;;5029143;28;20103;-63
2024/01/12 13:19:40;;;;;;;23.67;3.33;;;;;;;;;;5029360;28;20042;-63
2024/01/12 13:22:06;;;;;;;19.40;3.90;;;;;;;;;;5028769;28;20710;-63
2024/01/12 13:24:32;;;;;;;15.10;4.67;;;;;;;;;;5028696;28;20041;-63
2024/01/12 13:26:58;;;;;;;43.37;6.10;;;;;;;;;;5032846;28;20114;-62
2024/01/12 13:29:25;;;;;;;22.57;3.20;;;;;;;;;;5028644;28;20053;-63
2024/01/12 13:31:51;;;;;;;15.77;3.80;;;;;;;;;;5029151;28;20046;-62
2024/01/12 13:34:17;;;;;;;20.23;3.63;;;;;;;;;;5029334;28;20488;-63
2024/01/12 13:36:44;;;;;;;21.90;3.67;;;;;;;;;;5029524;28;20041;-63
2024/01/12 13:39:10;;;;;;;24.00;3.97;;;;;;;;;;5028882;28;20053;-63
2024/01/12 13:41:38;;;;;;;21.93;2.83;;;;;;;;;;5028630;28;20041;-63
2024/01/12 13:44:04;;;;;;;16.23;3.50;;;;;;;;;;5029236;28;21771;-62
2024/01/12 13:46:30;;;;;;;20.57;3.87;;;;;;;;;;5028855;28;20068;-62
2024/01/12 13:48:56;;;;;;;23.57;4.33;;;;;;;;;;5028230;28;20089;-63
2024/01/12 13:51:23;;;;;;;14.10;2.93;;;;;;;;;;5028063;28;20125;-63
2024/01/12 13:53:49;;;;;;;21.87;3.90;;;;;;;;;;5028747;28;20052;-63
2024/01/12 13:56:15;;;;;;;17.70;3.97;;;;;;;;;;5028968;28;20049;-63
2024/01/12 13:58:41;;;;;;;21.23;3.70;;;;;;;;;;5029077;28;20050;-63
2024/01/12 14:01:12;;;;;;;21.43;4.97;;;;;;;;;;5028797;28;20056;-63
2024/01/12 14:03:38;;;;;;;15.63;4.57;;;;;;;;;;5029234;28;20060;-63
2024/01/12 14:06:04;;;;;;;17.13;4.63;;;;;;;;;;5028794;28;20131;-63
2024/01/12 14:08:31;;;;;;;23.20;4.03;;;;;;;;;;5027542;28;20495;-63
2024/01/12 14:10:58;;;;;;;14.27;4.77;;;;;;;;;;5028761;28;20049;-63
2024/01/12 14:13:24;;;;;;;27.97;5.30;;;;;;;;;;5028956;28;20415;-63
2024/01/12 14:15:50;;;;;;;22.87;3.50;;;;;;;;;;5028616;28;20049;-63
2024/01/12 14:18:16;;;;;;;17.23;4.43;;;;;;;;;;5028983;28;20064;-63
2024/01/12 14:20:42;;;;;;;15.47;3.70;;;;;;;;;;5028959;28;20054;-62
2024/01/12 14:23:08;;;;;;;22.00;5.00;;;;;;;;;;5028542;28;20377;-62